sensor_id;sensor_type;location;lat;lon;timestamp;P1;P2;P0
39955;PMS5003;25631;51.516;-0.470;2023-03-24T00:00:15;12;9;
39955;PMS5003;25631;51.516;-0.470;2023-03-24T00:02:53;14;9;
39955;PMS5003;25631;51.516;-0.470;2023-03-24T00:05:29;15;10;
39955;PMS5003;25631;51.516;-0.470;2023-03-24T00:08:06;15;9;
39955;PMS5003;25631;51.516;-0.470;2023-03-24T00:10:44;15;10;
39955;PMS5003;25631;51.516;-0.470;2023-03-24T00:13:21;16;9;
39955;PMS5003;25631;51.516;-0.470;2023-03-24T00:15:57;17;9;
39955;PMS5003;25631;51.516;-0.470;2023-03-24T00:18:34;17;9;
39955;PMS5003;25631;51.516;-0.470;2023-03-24T00:21:17;17;9;
39955;PMS5003;25631;51.516;-0.470;2023-03-24T00:23:54;17;8;
39955;PMS5003;25631;51.516;-0.470;2023-03-24T00:26:33;17;8;
39955;PMS5003;25631;51.516;-0.470;2023-03-24T00:29:11;17;8;
39955;PMS5003;25631;51.516;-0.470;2023-03-24T00:31:47;16;8;
39955;PMS5003;25631;51.516;-0.470;2023-03-24T00:34:24;16;8;
39955;PMS5003;25631;51.516;-0.470;2023-03-24T00:37:00;16;8;
39955;PMS5003;25631;51.516;-0.470;2023-03-24T00:39:37;16;7;
39955;PMS5003;25631;51.516;-0.470;2023-03-24T00:42:16;16;7;
39955;PMS5003;25631;51.516;-0.470;2023-03-24T00:44:53;16;7;
39955;PMS5003;25631;51.516;-0.470;2023-03-24T00:47:30;15;8;
39955;PMS5003;25631;51.516;-0.470;2023-03-24T00:50:10;15;8;
39955;PMS5003;25631;51.516;-0.470;2023-03-24T00:52:48;15;8;
39955;PMS5003;25631;51.516;-0.470;2023-03-24T00:55:25;13;7;
39955;PMS5003;25631;51.516;-0.470;2023-03-24T00:58:01;13;7;
39955;PMS5003;25631;51.516;-0.470;2023-03-24T01:00:38;13;7;
39955;PMS5003;25631;51.516;-0.470;2023-03-24T01:03:15;10;7;
39955;PMS5003;25631;51.516;-0.470;2023-03-24T01:05:53;10;7;
39955;PMS5003;25631;51.516;-0.470;2023-03-24T01:08:30;10;7;
39955;PMS5003;25631;51.516;-0.470;2023-03-24T01:11:06;10;6;
39955;PMS5003;25631;51.516;-0.470;2023-03-24T01:13:43;10;6;
39955;PMS5003;25631;51.516;-0.470;2023-03-24T01:16:19;10;6;
39955;PMS5003;25631;51.516;-0.470;2023-03-24T01:18:56;9;6;
39955;PMS5003;25631;51.516;-0.470;2023-03-24T01:21:32;9;6;
39955;PMS5003;25631;51.516;-0.470;2023-03-24T01:24:10;9;6;
39955;PMS5003;25631;51.516;-0.470;2023-03-24T01:26:46;6;5;
39955;PMS5003;25631;51.516;-0.470;2023-03-24T01:29:23;6;5;
39955;PMS5003;25631;51.516;-0.470;2023-03-24T01:31:59;6;5;
39955;PMS5003;25631;51.516;-0.470;2023-03-24T01:34:36;6;6;
39955;PMS5003;25631;51.516;-0.470;2023-03-24T01:37:12;6;6;
39955;PMS5003;25631;51.516;-0.470;2023-03-24T01:39:49;6;6;
39955;PMS5003;25631;51.516;-0.470;2023-03-24T01:42:26;9;8;
39955;PMS5003;25631;51.516;-0.470;2023-03-24T01:45:39;9;8;
39955;PMS5003;25631;51.516;-0.470;2023-03-24T01:48:20;9;8;
39955;PMS5003;25631;51.516;-0.470;2023-03-24T01:51:00;11;9;
39955;PMS5003;25631;51.516;-0.470;2023-03-24T01:53:41;11;9;
39955;PMS5003;25631;51.516;-0.470;2023-03-24T01:56:22;11;9;
39955;PMS5003;25631;51.516;-0.470;2023-03-24T01:59:01;11;10;
39955;PMS5003;25631;51.516;-0.470;2023-03-24T02:01:41;11;10;
39955;PMS5003;25631;51.516;-0.470;2023-03-24T02:04:18;11;10;
39955;PMS5003;25631;51.516;-0.470;2023-03-24T02:06:55;13;11;
39955;PMS5003;25631;51.516;-0.470;2023-03-24T02:09:34;13;11;
39955;PMS5003;25631;51.516;-0.470;2023-03-24T02:12:11;13;11;
39955;PMS5003;25631;51.516;-0.470;2023-03-24T02:14:47;13;11;
39955;PMS5003;25631;51.516;-0.470;2023-03-24T02:17:32;13;11;
39955;PMS5003;25631;51.516;-0.470;2023-03-24T02:20:56;13;11;
39955;PMS5003;25631;51.516;-0.470;2023-03-24T02:23:56;12;11;
39955;PMS5003;25631;51.516;-0.470;2023-03-24T02:26:57;12;11;
39955;PMS5003;25631;51.516;-0.470;2023-03-24T02:31:25;13;11;
39955;PMS5003;25631;51.516;-0.470;2023-03-24T02:34:38;13;11;
39955;PMS5003;25631;51.516;-0.470;2023-03-24T02:37:48;13;11;
39955;PMS5003;25631;51.516;-0.470;2023-03-24T02:40:39;13;11;
39955;PMS5003;25631;51.516;-0.470;2023-03-24T02:43:22;13;11;
39955;PMS5003;25631;51.516;-0.470;2023-03-24T02:46:10;13;11;
39955;PMS5003;25631;51.516;-0.470;2023-03-24T02:48:57;13;11;
39955;PMS5003;25631;51.516;-0.470;2023-03-24T02:51:44;13;11;
39955;PMS5003;25631;51.516;-0.470;2023-03-24T02:54:28;13;11;
39955;PMS5003;25631;51.516;-0.470;2023-03-24T02:57:14;13;10;
39955;PMS5003;25631;51.516;-0.470;2023-03-24T02:59:58;13;10;
39955;PMS5003;25631;51.516;-0.470;2023-03-24T03:02:36;13;10;
39955;PMS5003;25631;51.516;-0.470;2023-03-24T03:05:20;12;9;
39955;PMS5003;25631;51.516;-0.470;2023-03-24T03:08:00;12;9;
39955;PMS5003;25631;51.516;-0.470;2023-03-24T03:10:42;12;9;
39955;PMS5003;25631;51.516;-0.470;2023-03-24T03:13:23;11;8;
39955;PMS5003;25631;51.516;-0.470;2023-03-24T03:16:06;11;8;
39955;PMS5003;25631;51.516;-0.470;2023-03-24T03:18:48;11;8;
39955;PMS5003;25631;51.516;-0.470;2023-03-24T03:21:35;12;8;
39955;PMS5003;25631;51.516;-0.470;2023-03-24T03:24:16;12;8;
39955;PMS5003;25631;51.516;-0.470;2023-03-24T03:26:56;12;8;
39955;PMS5003;25631;51.516;-0.470;2023-03-24T03:29:37;12;7;
39955;PMS5003;25631;51.516;-0.470;2023-03-24T03:32:19;12;7;
39955;PMS5003;25631;51.516;-0.470;2023-03-24T03:35:00;12;7;
39955;PMS5003;25631;51.516;-0.470;2023-03-24T03:37:45;12;7;
39955;PMS5003;25631;51.516;-0.470;2023-03-24T03:40:29;12;7;
39955;PMS5003;25631;51.516;-0.470;2023-03-24T03:43:11;12;7;
39955;PMS5003;25631;51.516;-0.470;2023-03-24T03:45:48;14;8;
39955;PMS5003;25631;51.516;-0.470;2023-03-24T03:48:24;14;8;
39955;PMS5003;25631;51.516;-0.470;2023-03-24T03:51:01;14;8;
39955;PMS5003;25631;51.516;-0.470;2023-03-24T03:53:39;15;9;
39955;PMS5003;25631;51.516;-0.470;2023-03-24T03:56:21;15;9;
39955;PMS5003;25631;51.516;-0.470;2023-03-24T03:58:58;15;9;
39955;PMS5003;25631;51.516;-0.470;2023-03-24T04:01:35;16;9;
39955;PMS5003;25631;51.516;-0.470;2023-03-24T04:04:23;16;9;
39955;PMS5003;25631;51.516;-0.470;2023-03-24T04:07:14;16;9;
39955;PMS5003;25631;51.516;-0.470;2023-03-24T04:09:58;16;9;
39955;PMS5003;25631;51.516;-0.470;2023-03-24T04:12:50;16;9;
39955;PMS5003;25631;51.516;-0.470;2023-03-24T04:15:40;16;9;
39955;PMS5003;25631;51.516;-0.470;2023-03-24T04:18:29;15;9;
39955;PMS5003;25631;51.516;-0.470;2023-03-24T04:21:23;15;9;
39955;PMS5003;25631;51.516;-0.470;2023-03-24T04:24:11;15;9;
39955;PMS5003;25631;51.516;-0.470;2023-03-24T04:26:59;14;9;
39955;PMS5003;25631;51.516;-0.470;2023-03-24T04:29:43;14;9;
39955;PMS5003;25631;51.516;-0.470;2023-03-24T04:32:30;14;9;
39955;PMS5003;25631;51.516;-0.470;2023-03-24T04:35:16;15;9;
39955;PMS5003;25631;51.516;-0.470;2023-03-24T04:37:56;15;9;
39955;PMS5003;25631;51.516;-0.470;2023-03-24T04:40:36;15;9;
39955;PMS5003;25631;51.516;-0.470;2023-03-24T04:43:17;15;9;
39955;PMS5003;25631;51.516;-0.470;2023-03-24T04:45:56;15;9;
39955;PMS5003;25631;51.516;-0.470;2023-03-24T04:48:33;15;9;
39955;PMS5003;25631;51.516;-0.470;2023-03-24T04:51:10;14;9;
39955;PMS5003;25631;51.516;-0.470;2023-03-24T04:53:47;14;9;
39955;PMS5003;25631;51.516;-0.470;2023-03-24T04:56:25;14;9;
39955;PMS5003;25631;51.516;-0.470;2023-03-24T04:59:05;13;9;
39955;PMS5003;25631;51.516;-0.470;2023-03-24T05:01:42;13;9;
39955;PMS5003;25631;51.516;-0.470;2023-03-24T05:04:21;13;9;
39955;PMS5003;25631;51.516;-0.470;2023-03-24T05:06:59;13;9;
39955;PMS5003;25631;51.516;-0.470;2023-03-24T05:09:35;13;9;
39955;PMS5003;25631;51.516;-0.470;2023-03-24T05:12:12;13;9;
39955;PMS5003;25631;51.516;-0.470;2023-03-24T05:14:48;13;9;
39955;PMS5003;25631;51.516;-0.470;2023-03-24T05:17:24;13;9;
39955;PMS5003;25631;51.516;-0.470;2023-03-24T05:20:01;13;9;
39955;PMS5003;25631;51.516;-0.470;2023-03-24T05:22:38;13;9;
39955;PMS5003;25631;51.516;-0.470;2023-03-24T05:25:15;13;9;
39955;PMS5003;25631;51.516;-0.470;2023-03-24T05:27:51;13;9;
39955;PMS5003;25631;51.516;-0.470;2023-03-24T05:30:28;13;8;
39955;PMS5003;25631;51.516;-0.470;2023-03-24T05:33:05;13;8;
39955;PMS5003;25631;51.516;-0.470;2023-03-24T05:35:41;13;8;
39955;PMS5003;25631;51.516;-0.470;2023-03-24T05:38:18;14;10;
39955;PMS5003;25631;51.516;-0.470;2023-03-24T05:40:55;14;10;
39955;PMS5003;25631;51.516;-0.470;2023-03-24T05:43:32;13;10;
39955;PMS5003;25631;51.516;-0.470;2023-03-24T05:46:08;13;10;
39955;PMS5003;25631;51.516;-0.470;2023-03-24T05:48:45;12;10;
39955;PMS5003;25631;51.516;-0.470;2023-03-24T05:51:21;13;10;
39955;PMS5003;25631;51.516;-0.470;2023-03-24T05:53:58;13;10;
39955;PMS5003;25631;51.516;-0.470;2023-03-24T05:56:34;12;10;
39955;PMS5003;25631;51.516;-0.470;2023-03-24T05:59:11;13;10;
39955;PMS5003;25631;51.516;-0.470;2023-03-24T06:01:47;14;11;
39955;PMS5003;25631;51.516;-0.470;2023-03-24T06:04:24;14;11;
39955;PMS5003;25631;51.516;-0.470;2023-03-24T06:07:00;14;11;
39955;PMS5003;25631;51.516;-0.470;2023-03-24T06:09:37;14;11;
39955;PMS5003;25631;51.516;-0.470;2023-03-24T06:12:13;14;11;
39955;PMS5003;25631;51.516;-0.470;2023-03-24T06:14:50;14;11;
39955;PMS5003;25631;51.516;-0.470;2023-03-24T06:17:27;14;11;
39955;PMS5003;25631;51.516;-0.470;2023-03-24T06:20:05;14;11;
39955;PMS5003;25631;51.516;-0.470;2023-03-24T06:22:42;14;11;
39955;PMS5003;25631;51.516;-0.470;2023-03-24T06:25:20;14;11;
39955;PMS5003;25631;51.516;-0.470;2023-03-24T06:27:56;14;11;
39955;PMS5003;25631;51.516;-0.470;2023-03-24T06:30:33;14;11;
39955;PMS5003;25631;51.516;-0.470;2023-03-24T06:33:09;13;10;
39955;PMS5003;25631;51.516;-0.470;2023-03-24T06:35:45;13;10;
39955;PMS5003;25631;51.516;-0.470;2023-03-24T06:38:22;13;10;
39955;PMS5003;25631;51.516;-0.470;2023-03-24T06:40:59;12;10;
39955;PMS5003;25631;51.516;-0.470;2023-03-24T06:43:35;12;10;
39955;PMS5003;25631;51.516;-0.470;2023-03-24T06:46:12;12;10;
39955;PMS5003;25631;51.516;-0.470;2023-03-24T06:48:48;11;9;
39955;PMS5003;25631;51.516;-0.470;2023-03-24T06:51:25;11;9;
39955;PMS5003;25631;51.516;-0.470;2023-03-24T06:54:02;11;9;
39955;PMS5003;25631;51.516;-0.470;2023-03-24T06:56:38;12;9;
39955;PMS5003;25631;51.516;-0.470;2023-03-24T06:59:15;12;9;
39955;PMS5003;25631;51.516;-0.470;2023-03-24T07:01:51;12;9;
39955;PMS5003;25631;51.516;-0.470;2023-03-24T07:04:28;11;8;
39955;PMS5003;25631;51.516;-0.470;2023-03-24T07:07:04;11;8;
39955;PMS5003;25631;51.516;-0.470;2023-03-24T07:09:41;11;8;
39955;PMS5003;25631;51.516;-0.470;2023-03-24T07:12:17;9;7;
39955;PMS5003;25631;51.516;-0.470;2023-03-24T07:14:54;9;7;
39955;PMS5003;25631;51.516;-0.470;2023-03-24T07:17:30;9;7;
39955;PMS5003;25631;51.516;-0.470;2023-03-24T07:20:07;8;6;
39955;PMS5003;25631;51.516;-0.470;2023-03-24T07:22:43;8;6;
39955;PMS5003;25631;51.516;-0.470;2023-03-24T07:25:20;8;6;
39955;PMS5003;25631;51.516;-0.470;2023-03-24T07:27:57;7;6;
39955;PMS5003;25631;51.516;-0.470;2023-03-24T07:30:33;7;6;
39955;PMS5003;25631;51.516;-0.470;2023-03-24T07:33:10;7;6;
39955;PMS5003;25631;51.516;-0.470;2023-03-24T07:35:47;7;6;
39955;PMS5003;25631;51.516;-0.470;2023-03-24T07:38:23;7;6;
39955;PMS5003;25631;51.516;-0.470;2023-03-24T07:41:00;7;6;
39955;PMS5003;25631;51.516;-0.470;2023-03-24T07:43:37;9;6;
39955;PMS5003;25631;51.516;-0.470;2023-03-24T07:46:13;9;6;
39955;PMS5003;25631;51.516;-0.470;2023-03-24T07:48:50;9;6;
39955;PMS5003;25631;51.516;-0.470;2023-03-24T07:51:26;11;7;
39955;PMS5003;25631;51.516;-0.470;2023-03-24T07:54:04;11;7;
39955;PMS5003;25631;51.516;-0.470;2023-03-24T07:56:40;11;7;
39955;PMS5003;25631;51.516;-0.470;2023-03-24T07:59:17;12;7;
39955;PMS5003;25631;51.516;-0.470;2023-03-24T08:01:53;12;7;
39955;PMS5003;25631;51.516;-0.470;2023-03-24T08:04:30;12;7;
39955;PMS5003;25631;51.516;-0.470;2023-03-24T08:07:06;12;8;
39955;PMS5003;25631;51.516;-0.470;2023-03-24T08:09:43;12;8;
39955;PMS5003;25631;51.516;-0.470;2023-03-24T08:12:19;12;8;
39955;PMS5003;25631;51.516;-0.470;2023-03-24T08:14:56;11;8;
39955;PMS5003;25631;51.516;-0.470;2023-03-24T08:17:32;11;8;
39955;PMS5003;25631;51.516;-0.470;2023-03-24T08:20:11;11;8;
39955;PMS5003;25631;51.516;-0.470;2023-03-24T08:22:48;14;9;
39955;PMS5003;25631;51.516;-0.470;2023-03-24T08:25:24;14;10;
39955;PMS5003;25631;51.516;-0.470;2023-03-24T08:28:01;15;11;
39955;PMS5003;25631;51.516;-0.470;2023-03-24T08:30:38;19;14;
39955;PMS5003;25631;51.516;-0.470;2023-03-24T08:33:15;20;15;
39955;PMS5003;25631;51.516;-0.470;2023-03-24T08:35:51;19;16;
39955;PMS5003;25631;51.516;-0.470;2023-03-24T08:38:28;19;16;
39955;PMS5003;25631;51.516;-0.470;2023-03-24T08:41:05;18;17;
39955;PMS5003;25631;51.516;-0.470;2023-03-24T08:43:42;18;16;
39955;PMS5003;25631;51.516;-0.470;2023-03-24T08:46:18;18;17;
39955;PMS5003;25631;51.516;-0.470;2023-03-24T08:48:54;16;15;
39955;PMS5003;25631;51.516;-0.470;2023-03-24T08:51:31;16;15;
39955;PMS5003;25631;51.516;-0.470;2023-03-24T08:54:08;15;14;
39955;PMS5003;25631;51.516;-0.470;2023-03-24T08:56:44;15;14;
39955;PMS5003;25631;51.516;-0.470;2023-03-24T08:59:21;15;14;
39955;PMS5003;25631;51.516;-0.470;2023-03-24T09:01:57;12;10;
39955;PMS5003;25631;51.516;-0.470;2023-03-24T09:04:34;12;10;
39955;PMS5003;25631;51.516;-0.470;2023-03-24T09:07:10;12;10;
39955;PMS5003;25631;51.516;-0.470;2023-03-24T09:09:47;11;9;
39955;PMS5003;25631;51.516;-0.470;2023-03-24T09:12:24;11;9;
39955;PMS5003;25631;51.516;-0.470;2023-03-24T09:15:01;11;9;
39955;PMS5003;25631;51.516;-0.470;2023-03-24T09:17:38;10;7;
39955;PMS5003;25631;51.516;-0.470;2023-03-24T09:20:15;11;8;
39955;PMS5003;25631;51.516;-0.470;2023-03-24T09:22:52;11;8;
39955;PMS5003;25631;51.516;-0.470;2023-03-24T09:25:28;10;8;
39955;PMS5003;25631;51.516;-0.470;2023-03-24T09:28:05;10;8;
39955;PMS5003;25631;51.516;-0.470;2023-03-24T09:30:42;10;8;
39955;PMS5003;25631;51.516;-0.470;2023-03-24T09:33:19;10;7;
39955;PMS5003;25631;51.516;-0.470;2023-03-24T09:35:56;10;7;
39955;PMS5003;25631;51.516;-0.470;2023-03-24T09:38:33;9;6;
39955;PMS5003;25631;51.516;-0.470;2023-03-24T09:41:13;9;6;
39955;PMS5003;25631;51.516;-0.470;2023-03-24T09:43:53;9;6;
39955;PMS5003;25631;51.516;-0.470;2023-03-24T09:46:35;9;6;
39955;PMS5003;25631;51.516;-0.470;2023-03-24T09:49:20;10;7;
39955;PMS5003;25631;51.516;-0.470;2023-03-24T09:51:59;10;7;
39955;PMS5003;25631;51.516;-0.470;2023-03-24T09:54:40;10;7;
39955;PMS5003;25631;51.516;-0.470;2023-03-24T09:57:23;11;7;
39955;PMS5003;25631;51.516;-0.470;2023-03-24T10:00:07;11;7;
39955;PMS5003;25631;51.516;-0.470;2023-03-24T10:02:50;11;7;
39955;PMS5003;25631;51.516;-0.470;2023-03-24T10:05:28;10;7;
39955;PMS5003;25631;51.516;-0.470;2023-03-24T10:08:11;10;7;
39955;PMS5003;25631;51.516;-0.470;2023-03-24T10:10:54;10;7;
39955;PMS5003;25631;51.516;-0.470;2023-03-24T10:13:41;10;6;
39955;PMS5003;25631;51.516;-0.470;2023-03-24T10:16:28;10;6;
39955;PMS5003;25631;51.516;-0.470;2023-03-24T10:19:15;10;6;
39955;PMS5003;25631;51.516;-0.470;2023-03-24T10:22:03;11;7;
39955;PMS5003;25631;51.516;-0.470;2023-03-24T10:24:48;11;7;
39955;PMS5003;25631;51.516;-0.470;2023-03-24T10:27:33;11;7;
39955;PMS5003;25631;51.516;-0.470;2023-03-24T10:30:17;10;7;
39955;PMS5003;25631;51.516;-0.470;2023-03-24T10:32:57;10;7;
39955;PMS5003;25631;51.516;-0.470;2023-03-24T10:35:34;10;7;
39955;PMS5003;25631;51.516;-0.470;2023-03-24T10:38:15;13;8;
39955;PMS5003;25631;51.516;-0.470;2023-03-24T10:40:53;13;8;
39955;PMS5003;25631;51.516;-0.470;2023-03-24T10:43:30;14;9;
39955;PMS5003;25631;51.516;-0.470;2023-03-24T10:46:07;15;9;
39955;PMS5003;25631;51.516;-0.470;2023-03-24T10:48:48;15;9;
39955;PMS5003;25631;51.516;-0.470;2023-03-24T10:51:27;15;9;
39955;PMS5003;25631;51.516;-0.470;2023-03-24T10:54:09;13;9;
39955;PMS5003;25631;51.516;-0.470;2023-03-24T10:56:48;13;9;
39955;PMS5003;25631;51.516;-0.470;2023-03-24T10:59:26;13;9;
39955;PMS5003;25631;51.516;-0.470;2023-03-24T11:02:14;13;8;
39955;PMS5003;25631;51.516;-0.470;2023-03-24T11:04:55;13;8;
39955;PMS5003;25631;51.516;-0.470;2023-03-24T11:07:34;13;8;
39955;PMS5003;25631;51.516;-0.470;2023-03-24T11:10:13;12;8;
39955;PMS5003;25631;51.516;-0.470;2023-03-24T11:12:59;12;8;
39955;PMS5003;25631;51.516;-0.470;2023-03-24T11:15:36;12;8;
39955;PMS5003;25631;51.516;-0.470;2023-03-24T11:18:13;14;9;
39955;PMS5003;25631;51.516;-0.470;2023-03-24T11:20:52;14;9;
39955;PMS5003;25631;51.516;-0.470;2023-03-24T11:23:33;14;9;
39955;PMS5003;25631;51.516;-0.470;2023-03-24T11:26:13;15;9;
39955;PMS5003;25631;51.516;-0.470;2023-03-24T11:28:52;15;9;
39955;PMS5003;25631;51.516;-0.470;2023-03-24T11:31:31;15;9;
39955;PMS5003;25631;51.516;-0.470;2023-03-24T11:34:12;14;9;
39955;PMS5003;25631;51.516;-0.470;2023-03-24T11:36:51;14;9;
39955;PMS5003;25631;51.516;-0.470;2023-03-24T11:39:29;14;9;
39955;PMS5003;25631;51.516;-0.470;2023-03-24T11:42:12;15;10;
39955;PMS5003;25631;51.516;-0.470;2023-03-24T11:44:50;14;10;
39955;PMS5003;25631;51.516;-0.470;2023-03-24T11:47:29;13;11;
39955;PMS5003;25631;51.516;-0.470;2023-03-24T11:50:13;13;11;
39955;PMS5003;25631;51.516;-0.470;2023-03-24T11:52:54;13;11;
39955;PMS5003;25631;51.516;-0.470;2023-03-24T11:55:38;13;11;
39955;PMS5003;25631;51.516;-0.470;2023-03-24T11:58:23;16;12;
39955;PMS5003;25631;51.516;-0.470;2023-03-24T12:01:05;14;12;
39955;PMS5003;25631;51.516;-0.470;2023-03-24T12:03:53;13;11;
39955;PMS5003;25631;51.516;-0.470;2023-03-24T12:06:42;14;12;
39955;PMS5003;25631;51.516;-0.470;2023-03-24T12:09:28;14;11;
39955;PMS5003;25631;51.516;-0.470;2023-03-24T12:12:18;15;12;
39955;PMS5003;25631;51.516;-0.470;2023-03-24T12:15:08;14;11;
39955;PMS5003;25631;51.516;-0.470;2023-03-24T12:17:58;14;11;
39955;PMS5003;25631;51.516;-0.470;2023-03-24T12:20:45;14;11;
39955;PMS5003;25631;51.516;-0.470;2023-03-24T12:23:33;17;12;
39955;PMS5003;25631;51.516;-0.470;2023-03-24T12:26:17;17;12;
39955;PMS5003;25631;51.516;-0.470;2023-03-24T12:29:00;17;12;
39955;PMS5003;25631;51.516;-0.470;2023-03-24T12:31:58;16;12;
39955;PMS5003;25631;51.516;-0.470;2023-03-24T12:34:50;16;12;
39955;PMS5003;25631;51.516;-0.470;2023-03-24T12:37:40;16;12;
39955;PMS5003;25631;51.516;-0.470;2023-03-24T12:40:31;18;13;
39955;PMS5003;25631;51.516;-0.470;2023-03-24T12:43:26;18;13;
39955;PMS5003;25631;51.516;-0.470;2023-03-24T12:46:17;18;13;
39955;PMS5003;25631;51.516;-0.470;2023-03-24T12:49:10;16;11;
39955;PMS5003;25631;51.516;-0.470;2023-03-24T12:52:17;16;11;
39955;PMS5003;25631;51.516;-0.470;2023-03-24T12:55:02;16;11;
39955;PMS5003;25631;51.516;-0.470;2023-03-24T12:57:45;15;11;
39955;PMS5003;25631;51.516;-0.470;2023-03-24T13:00:26;15;11;
39955;PMS5003;25631;51.516;-0.470;2023-03-24T13:03:09;15;11;
39955;PMS5003;25631;51.516;-0.470;2023-03-24T13:05:49;15;11;
39955;PMS5003;25631;51.516;-0.470;2023-03-24T13:08:29;15;11;
39955;PMS5003;25631;51.516;-0.470;2023-03-24T13:11:08;15;11;
39955;PMS5003;25631;51.516;-0.470;2023-03-24T13:13:48;15;11;
39955;PMS5003;25631;51.516;-0.470;2023-03-24T13:16:26;15;11;
39955;PMS5003;25631;51.516;-0.470;2023-03-24T13:19:15;15;11;
39955;PMS5003;25631;51.516;-0.470;2023-03-24T13:21:55;13;10;
39955;PMS5003;25631;51.516;-0.470;2023-03-24T13:24:33;13;10;
39955;PMS5003;25631;51.516;-0.470;2023-03-24T13:27:11;13;10;
39955;PMS5003;25631;51.516;-0.470;2023-03-24T13:30:29;11;8;
39955;PMS5003;25631;51.516;-0.470;2023-03-24T13:33:10;11;8;
39955;PMS5003;25631;51.516;-0.470;2023-03-24T13:35:59;11;8;
39955;PMS5003;25631;51.516;-0.470;2023-03-24T13:38:50;10;8;
39955;PMS5003;25631;51.516;-0.470;2023-03-24T13:41:31;11;9;
39955;PMS5003;25631;51.516;-0.470;2023-03-24T13:44:14;11;9;
39955;PMS5003;25631;51.516;-0.470;2023-03-24T13:46:58;8;7;
39955;PMS5003;25631;51.516;-0.470;2023-03-24T13:49:41;8;7;
39955;PMS5003;25631;51.516;-0.470;2023-03-24T13:52:25;8;7;
39955;PMS5003;25631;51.516;-0.470;2023-03-24T13:55:08;8;6;
39955;PMS5003;25631;51.516;-0.470;2023-03-24T13:57:52;8;6;
39955;PMS5003;25631;51.516;-0.470;2023-03-24T14:00:31;8;6;
39955;PMS5003;25631;51.516;-0.470;2023-03-24T14:03:12;8;6;
39955;PMS5003;25631;51.516;-0.470;2023-03-24T14:05:58;8;6;
39955;PMS5003;25631;51.516;-0.470;2023-03-24T14:08:40;8;6;
39955;PMS5003;25631;51.516;-0.470;2023-03-24T14:12:24;8;6;
39955;PMS5003;25631;51.516;-0.470;2023-03-24T14:15:11;8;6;
39955;PMS5003;25631;51.516;-0.470;2023-03-24T14:17:53;8;6;
39955;PMS5003;25631;51.516;-0.470;2023-03-24T14:20:32;7;6;
39955;PMS5003;25631;51.516;-0.470;2023-03-24T14:23:17;7;6;
39955;PMS5003;25631;51.516;-0.470;2023-03-24T14:25:57;7;6;
39955;PMS5003;25631;51.516;-0.470;2023-03-24T14:28:36;7;6;
39955;PMS5003;25631;51.516;-0.470;2023-03-24T14:31:18;7;6;
39955;PMS5003;25631;51.516;-0.470;2023-03-24T14:33:59;7;6;
39955;PMS5003;25631;51.516;-0.470;2023-03-24T14:36:55;7;6;
39955;PMS5003;25631;51.516;-0.470;2023-03-24T14:39:34;7;6;
39955;PMS5003;25631;51.516;-0.470;2023-03-24T14:43:22;7;6;
39955;PMS5003;25631;51.516;-0.470;2023-03-24T14:46:00;7;6;
39955;PMS5003;25631;51.516;-0.470;2023-03-24T14:48:41;7;6;
39955;PMS5003;25631;51.516;-0.470;2023-03-24T14:51:29;7;6;
39955;PMS5003;25631;51.516;-0.470;2023-03-24T14:54:13;9;6;
39955;PMS5003;25631;51.516;-0.470;2023-03-24T14:56:52;9;6;
39955;PMS5003;25631;51.516;-0.470;2023-03-24T14:59:34;9;6;
39955;PMS5003;25631;51.516;-0.470;2023-03-24T15:02:19;11;7;
39955;PMS5003;25631;51.516;-0.470;2023-03-24T15:05:15;11;7;
39955;PMS5003;25631;51.516;-0.470;2023-03-24T15:08:01;11;7;
39955;PMS5003;25631;51.516;-0.470;2023-03-24T15:10:47;13;8;
39955;PMS5003;25631;51.516;-0.470;2023-03-24T15:13:28;13;8;
39955;PMS5003;25631;51.516;-0.470;2023-03-24T15:16:15;13;8;
39955;PMS5003;25631;51.516;-0.470;2023-03-24T15:18:54;13;8;
39955;PMS5003;25631;51.516;-0.470;2023-03-24T15:21:33;13;8;
39955;PMS5003;25631;51.516;-0.470;2023-03-24T15:24:28;13;8;
39955;PMS5003;25631;51.516;-0.470;2023-03-24T15:27:17;11;7;
39955;PMS5003;25631;51.516;-0.470;2023-03-24T15:29:57;11;7;
39955;PMS5003;25631;51.516;-0.470;2023-03-24T15:32:35;11;7;
39955;PMS5003;25631;51.516;-0.470;2023-03-24T15:35:13;11;7;
39955;PMS5003;25631;51.516;-0.470;2023-03-24T15:37:52;11;7;
39955;PMS5003;25631;51.516;-0.470;2023-03-24T15:40:33;11;7;
39955;PMS5003;25631;51.516;-0.470;2023-03-24T15:43:15;14;9;
39955;PMS5003;25631;51.516;-0.470;2023-03-24T15:45:55;14;9;
39955;PMS5003;25631;51.516;-0.470;2023-03-24T15:48:33;15;9;
39955;PMS5003;25631;51.516;-0.470;2023-03-24T15:51:11;16;10;
39955;PMS5003;25631;51.516;-0.470;2023-03-24T15:53:54;16;11;
39955;PMS5003;25631;51.516;-0.470;2023-03-24T15:56:31;15;11;
39955;PMS5003;25631;51.516;-0.470;2023-03-24T15:59:12;14;11;
39955;PMS5003;25631;51.516;-0.470;2023-03-24T16:01:49;15;11;
39955;PMS5003;25631;51.516;-0.470;2023-03-24T16:04:27;17;13;
39955;PMS5003;25631;51.516;-0.470;2023-03-24T16:07:04;17;13;
39955;PMS5003;25631;51.516;-0.470;2023-03-24T16:09:40;14;12;
39955;PMS5003;25631;51.516;-0.470;2023-03-24T16:12:16;16;13;
39955;PMS5003;25631;51.516;-0.470;2023-03-24T16:14:53;15;12;
39955;PMS5003;25631;51.516;-0.470;2023-03-24T16:17:30;15;12;
39955;PMS5003;25631;51.516;-0.470;2023-03-24T16:20:08;15;12;
39955;PMS5003;25631;51.516;-0.470;2023-03-24T16:22:52;13;12;
39955;PMS5003;25631;51.516;-0.470;2023-03-24T16:25:29;13;12;
39955;PMS5003;25631;51.516;-0.470;2023-03-24T16:28:05;13;12;
39955;PMS5003;25631;51.516;-0.470;2023-03-24T16:30:43;12;11;
39955;PMS5003;25631;51.516;-0.470;2023-03-24T16:33:23;12;11;
39955;PMS5003;25631;51.516;-0.470;2023-03-24T16:35:59;12;11;
39955;PMS5003;25631;51.516;-0.470;2023-03-24T16:38:36;11;10;
39955;PMS5003;25631;51.516;-0.470;2023-03-24T16:41:13;11;10;
39955;PMS5003;25631;51.516;-0.470;2023-03-24T16:43:50;11;10;
39955;PMS5003;25631;51.516;-0.470;2023-03-24T16:46:29;11;10;
39955;PMS5003;25631;51.516;-0.470;2023-03-24T16:49:07;11;10;
39955;PMS5003;25631;51.516;-0.470;2023-03-24T16:51:47;11;10;
39955;PMS5003;25631;51.516;-0.470;2023-03-24T16:54:24;11;10;
39955;PMS5003;25631;51.516;-0.470;2023-03-24T16:57:00;11;10;
39955;PMS5003;25631;51.516;-0.470;2023-03-24T16:59:37;11;10;
39955;PMS5003;25631;51.516;-0.470;2023-03-24T17:02:13;10;9;
39955;PMS5003;25631;51.516;-0.470;2023-03-24T17:04:49;10;9;
39955;PMS5003;25631;51.516;-0.470;2023-03-24T17:07:26;10;9;
39955;PMS5003;25631;51.516;-0.470;2023-03-24T17:10:02;10;8;
39955;PMS5003;25631;51.516;-0.470;2023-03-24T17:12:39;10;8;
39955;PMS5003;25631;51.516;-0.470;2023-03-24T17:15:18;10;8;
39955;PMS5003;25631;51.516;-0.470;2023-03-24T17:17:56;9;7;
39955;PMS5003;25631;51.516;-0.470;2023-03-24T17:20:32;9;7;
39955;PMS5003;25631;51.516;-0.470;2023-03-24T17:23:09;9;7;
39955;PMS5003;25631;51.516;-0.470;2023-03-24T17:25:47;8;7;
39955;PMS5003;25631;51.516;-0.470;2023-03-24T17:28:24;8;7;
39955;PMS5003;25631;51.516;-0.470;2023-03-24T17:31:00;8;7;
39955;PMS5003;25631;51.516;-0.470;2023-03-24T17:33:37;8;7;
39955;PMS5003;25631;51.516;-0.470;2023-03-24T17:36:13;8;7;
39955;PMS5003;25631;51.516;-0.470;2023-03-24T17:38:51;8;7;
39955;PMS5003;25631;51.516;-0.470;2023-03-24T17:41:27;9;7;
39955;PMS5003;25631;51.516;-0.470;2023-03-24T17:44:04;9;7;